createdAt,value
2023-04-05T00:00:09.906Z,2.80
2023-04-05T00:02:40.653Z,3.23
2023-04-05T00:05:09.766Z,3.90
2023-04-05T00:07:38.393Z,3.20
2023-04-05T00:10:08.190Z,3.20
2023-04-05T00:12:36.061Z,3.13
2023-04-05T00:15:04.643Z,3.50
2023-04-05T00:17:32.954Z,3.13
2023-04-05T00:20:01.781Z,2.90
2023-04-05T00:22:35.860Z,3.97
2023-04-05T00:25:03.489Z,3.80
2023-04-05T00:27:32.560Z,3.33
2023-04-05T00:30:01.010Z,4.03
2023-04-05T00:32:28.766Z,4.20
2023-04-05T00:34:56.447Z,4.37
2023-04-05T00:37:24.261Z,5.73
2023-04-05T00:39:53.740Z,6.87
2023-04-05T00:42:21.477Z,6.20
2023-04-05T00:44:50.582Z,6.23
2023-04-05T00:47:18.354Z,6.77
2023-04-05T00:49:46.826Z,5.70
2023-04-05T00:52:16.220Z,5.80
2023-04-05T00:54:44.551Z,7.03
2023-04-05T00:57:12.529Z,6.47
2023-04-05T00:59:40.279Z,6.37
2023-04-05T01:02:17.972Z,5.50
2023-04-05T01:04:54.345Z,6.13
2023-04-05T01:07:27.218Z,5.47
2023-04-05T01:09:57.777Z,5.63
2023-04-05T01:12:29.412Z,5.50
2023-04-05T01:14:57.207Z,4.70
2023-04-05T01:17:29.157Z,6.20
2023-04-05T01:20:00.284Z,5.60
2023-04-05T01:22:50.335Z,5.63
2023-04-05T01:25:37.785Z,7.13
2023-04-05T01:28:25.200Z,5.83
2023-04-05T01:31:03.303Z,4.83
2023-04-05T01:33:36.353Z,5.03
2023-04-05T01:36:09.716Z,4.87
2023-04-05T01:38:40.839Z,5.10
2023-04-05T01:41:08.680Z,5.03
2023-04-05T01:43:36.269Z,4.90
2023-04-05T01:46:05.518Z,5.17
2023-04-05T01:48:33.455Z,4.57
2023-04-05T01:51:01.164Z,3.67
2023-04-05T01:53:28.801Z,4.27
2023-04-05T01:56:00.915Z,3.70
2023-04-05T01:58:28.716Z,4.00
2023-04-05T02:00:56.578Z,4.17
2023-04-05T02:03:25.847Z,3.83
2023-04-05T02:05:53.494Z,3.47
2023-04-05T02:08:21.100Z,3.70
2023-04-05T02:10:48.701Z,4.07
2023-04-05T02:13:16.426Z,3.67
2023-04-05T02:15:49.098Z,3.43
2023-04-05T02:18:21.749Z,3.40
2023-04-05T02:20:52.179Z,3.73
2023-04-05T02:23:20.900Z,3.40
2023-04-05T02:25:48.548Z,5.13
2023-04-05T02:28:16.472Z,4.63
2023-04-05T02:30:44.127Z,3.63
2023-04-05T02:33:12.634Z,4.00
2023-04-05T02:35:40.304Z,4.30
2023-04-05T02:38:09.472Z,3.97
2023-04-05T02:40:37.593Z,4.30
2023-04-05T02:43:05.361Z,4.07
2023-04-05T02:45:33.176Z,4.40
2023-04-05T02:48:00.997Z,4.53
2023-04-05T02:50:28.582Z,4.70
2023-04-05T02:52:56.366Z,4.50
2023-04-05T02:55:26.001Z,3.43
2023-04-05T02:57:53.586Z,4.73
2023-04-05T03:00:22.231Z,4.20
2023-04-05T03:02:50.447Z,4.83
2023-04-05T03:05:18.632Z,4.83
2023-04-05T03:07:46.792Z,4.60
2023-04-05T03:10:18.605Z,4.97
2023-04-05T03:12:47.613Z,4.07
2023-04-05T03:15:15.229Z,3.80
2023-04-05T03:17:44.219Z,4.50
2023-04-05T03:20:13.288Z,5.10
2023-04-05T03:22:41.642Z,4.37
2023-04-05T03:25:09.582Z,4.73
2023-04-05T03:27:38.362Z,3.93
2023-04-05T03:30:08.871Z,4.97
2023-04-05T03:32:36.509Z,4.47
2023-04-05T03:35:04.297Z,4.57
2023-04-05T03:37:31.979Z,5.13
2023-04-05T03:39:59.567Z,4.60
2023-04-05T03:42:27.194Z,5.47
2023-04-05T03:44:54.971Z,4.67
2023-04-05T03:47:23.940Z,4.77
2023-04-05T03:49:51.542Z,4.40
2023-04-05T03:52:19.177Z,5.10
2023-04-05T03:54:46.790Z,5.07
2023-04-05T03:57:14.452Z,4.47
2023-04-05T03:59:42.307Z,4.83
2023-04-05T04:02:09.985Z,5.07
2023-04-05T04:04:39.067Z,4.33
2023-04-05T04:07:06.776Z,6.20
2023-04-05T04:09:34.384Z,4.63
2023-04-05T04:12:01.973Z,4.57
2023-04-05T04:14:29.518Z,5.57
2023-04-05T04:16:57.270Z,5.13
2023-04-05T04:19:24.839Z,4.90
2023-04-05T04:21:55.996Z,4.70
2023-04-05T04:24:27.329Z,5.10
2023-04-05T04:26:55.474Z,4.23
2023-04-05T04:29:31.066Z,4.33
2023-04-05T04:31:58.695Z,5.03
2023-04-05T04:34:26.345Z,4.63
2023-04-05T04:37:01.393Z,4.47
2023-04-05T04:39:31.431Z,5.00
2023-04-05T04:41:59.332Z,4.03
2023-04-05T04:44:31.175Z,4.23
2023-04-05T04:46:59.233Z,5.50
2023-04-05T04:49:28.299Z,5.53
2023-04-05T04:51:59.369Z,5.00
2023-04-05T04:54:28.705Z,4.53
2023-04-05T04:56:57.333Z,4.20
2023-04-05T04:59:24.975Z,5.60
2023-04-05T05:01:52.632Z,4.93
2023-04-05T05:04:20.437Z,4.90
2023-04-05T05:06:50.957Z,4.60
2023-04-05T05:09:19.943Z,3.83
2023-04-05T05:11:47.624Z,5.73
2023-04-05T05:14:15.620Z,4.63
2023-04-05T05:16:43.272Z,3.80
2023-04-05T05:19:10.900Z,5.00
2023-04-05T05:21:38.607Z,5.23
2023-04-05T05:24:08.550Z,4.70
2023-04-05T05:26:38.041Z,9.07
2023-04-05T05:29:05.945Z,7.07
2023-04-05T05:31:33.871Z,5.30
2023-04-05T05:34:01.517Z,4.80
2023-04-05T05:36:29.250Z,5.10
2023-04-05T05:38:56.954Z,5.37
2023-04-05T05:41:25.688Z,5.53
2023-04-05T05:43:56.843Z,5.03
2023-04-05T05:46:24.635Z,7.60
2023-04-05T05:48:52.513Z,8.50
2023-04-05T05:51:20.762Z,6.00
2023-04-05T05:53:48.656Z,5.50
2023-04-05T05:56:16.409Z,5.00
2023-04-05T05:58:44.127Z,5.80
2023-04-05T06:01:14.432Z,5.60
2023-04-05T06:03:42.238Z,4.97
2023-04-05T06:06:11.129Z,5.60
2023-04-05T06:08:38.843Z,5.57
2023-04-05T06:11:06.586Z,6.20
2023-04-05T06:13:34.152Z,9.93
2023-04-05T06:16:02.576Z,11.60
2023-04-05T06:18:31.680Z,6.30
2023-04-05T06:20:59.294Z,5.57
2023-04-05T06:23:26.994Z,6.73
2023-04-05T06:25:56.785Z,5.60
2023-04-05T06:28:24.432Z,5.63
2023-04-05T06:30:52.023Z,4.80
2023-04-05T06:33:19.597Z,6.20
2023-04-05T06:35:48.579Z,5.60
2023-04-05T06:38:17.521Z,5.73
2023-04-05T06:40:45.325Z,5.20
2023-04-05T06:43:13.023Z,4.93
2023-04-05T06:45:40.995Z,5.70
2023-04-05T06:48:08.895Z,6.07
2023-04-05T06:50:36.514Z,5.07
2023-04-05T06:53:05.633Z,5.57
2023-04-05T06:55:33.387Z,6.67
2023-04-05T06:58:01.142Z,5.80
2023-04-05T07:00:28.761Z,6.27
2023-04-05T07:02:56.456Z,5.70
2023-04-05T07:05:24.069Z,5.90
2023-04-05T07:07:53.184Z,5.87
2023-04-05T07:10:22.225Z,5.13
2023-04-05T07:12:49.939Z,5.23
2023-04-05T07:15:17.727Z,4.83
2023-04-05T07:17:45.563Z,6.30
2023-04-05T07:20:13.708Z,6.07
2023-04-05T07:22:41.339Z,5.30
2023-04-05T07:25:10.509Z,5.50
2023-04-05T07:27:39.744Z,4.80
2023-04-05T07:30:08.755Z,4.87
2023-04-05T07:32:36.466Z,5.97
2023-04-05T07:35:04.207Z,6.07
2023-04-05T07:37:31.804Z,4.33
2023-04-05T07:39:59.571Z,5.70
2023-04-05T07:42:28.300Z,5.27
2023-04-05T07:44:57.413Z,5.00
2023-04-05T07:47:25.154Z,4.70
2023-04-05T07:49:52.842Z,5.17
2023-04-05T07:52:20.475Z,4.20
2023-04-05T07:54:49.946Z,4.63
2023-04-05T07:57:18.271Z,4.17
2023-04-05T07:59:46.224Z,4.07
2023-04-05T08:02:15.491Z,4.10
2023-04-05T08:04:43.196Z,4.07
2023-04-05T08:07:11.208Z,3.83
2023-04-05T08:09:39.067Z,3.10
2023-04-05T08:12:07.599Z,3.60
2023-04-05T08:14:35.322Z,5.70
2023-04-05T08:17:03.048Z,3.93
2023-04-05T08:19:32.177Z,3.73
2023-04-05T08:21:59.963Z,3.63
2023-04-05T08:24:27.633Z,3.37
2023-04-05T08:26:56.277Z,3.53
2023-04-05T08:29:24.174Z,3.27
2023-04-05T08:31:51.936Z,3.83
2023-04-05T08:34:19.851Z,3.03
2023-04-05T08:36:49.017Z,2.83
2023-04-05T08:39:16.888Z,3.73
2023-04-05T08:41:56.937Z,3.17
2023-04-05T08:44:27.433Z,2.20
2023-04-05T08:46:59.125Z,2.50
2023-04-05T08:49:27.107Z,3.10
2023-04-05T08:52:01.355Z,3.03
2023-04-05T08:54:29.246Z,3.47
2023-04-05T08:56:59.588Z,2.37
2023-04-05T08:59:28.368Z,1.37
2023-04-05T09:01:58.234Z,2.60
2023-04-05T09:04:31.242Z,1.93
2023-04-05T09:07:02.544Z,2.55
2023-04-05T09:09:34.763Z,2.75
2023-04-05T09:12:04.689Z,1.83
2023-04-05T09:14:35.184Z,1.42
2023-04-05T09:17:03.855Z,2.58
2023-04-05T09:19:31.834Z,2.45
2023-04-05T09:22:02.320Z,2.53
2023-04-05T09:24:35.326Z,1.80
2023-04-05T09:27:07.942Z,2.58
2023-04-05T09:29:36.228Z,2.90
2023-04-05T09:32:05.528Z,2.50
2023-04-05T09:34:36.791Z,2.22
2023-04-05T09:37:14.156Z,3.58
2023-04-05T09:39:41.780Z,3.05
2023-04-05T09:42:11.765Z,3.42
2023-04-05T09:44:53.198Z,3.13
2023-04-05T09:47:22.206Z,2.60
2023-04-05T09:49:50.373Z,3.08
2023-04-05T09:52:24.556Z,3.10
2023-04-05T09:54:56.013Z,2.60
2023-04-05T09:57:26.376Z,2.25
2023-04-05T09:59:54.473Z,1.92
2023-04-05T10:02:22.966Z,2.30
2023-04-05T10:04:50.790Z,2.92
2023-04-05T10:07:20.042Z,3.42
2023-04-05T10:09:49.615Z,3.50
2023-04-05T10:12:26.102Z,2.60
2023-04-05T10:14:53.776Z,3.22
2023-04-05T10:17:26.425Z,2.28
2023-04-05T10:20:03.686Z,2.65
2023-04-05T10:22:37.493Z,3.15
2023-04-05T10:25:22.427Z,2.50
2023-04-05T10:27:54.704Z,2.75
2023-04-05T10:30:25.652Z,2.60
2023-04-05T10:33:05.159Z,2.40
2023-04-05T10:35:39.839Z,2.08
2023-04-05T10:38:23.515Z,2.65
2023-04-05T10:40:58.243Z,3.45
2023-04-05T10:43:27.719Z,3.10
2023-04-05T10:45:56.181Z,2.22
2023-04-05T10:48:37.501Z,2.55
2023-04-05T10:51:05.780Z,3.03
2023-04-05T10:53:35.116Z,3.55
2023-04-05T10:56:04.655Z,3.03
2023-04-05T10:58:34.119Z,3.20
2023-04-05T11:01:02.267Z,1.95
2023-04-05T11:03:43.136Z,2.45
2023-04-05T11:06:25.386Z,1.70
2023-04-05T11:08:57.560Z,2.63
2023-04-05T11:11:27.719Z,2.60
2023-04-05T11:13:56.869Z,2.05
2023-04-05T11:16:40.537Z,4.65
2023-04-05T11:19:08.349Z,2.95
2023-04-05T11:21:36.317Z,2.50
2023-04-05T11:24:06.862Z,3.25
2023-04-05T11:26:54.809Z,2.97
2023-04-05T11:29:56.257Z,2.05
2023-04-05T11:32:24.654Z,3.67
2023-04-05T11:35:00.717Z,3.95
2023-04-05T11:38:06.732Z,4.05
2023-04-05T11:40:35.895Z,4.25
2023-04-05T11:43:08.756Z,3.65
2023-04-05T11:45:37.931Z,3.67
2023-04-05T11:48:07.280Z,3.83
2023-04-05T11:50:36.531Z,4.00
2023-04-05T11:53:14.847Z,3.42
2023-04-05T11:55:44.316Z,4.85
2023-04-05T11:58:18.535Z,3.67
2023-04-05T12:00:47.829Z,4.50
2023-04-05T12:03:16.706Z,4.32
2023-04-05T12:05:51.235Z,4.53
2023-04-05T12:08:19.202Z,3.50
2023-04-05T12:10:55.059Z,4.03
2023-04-05T12:13:31.731Z,5.25
2023-04-05T12:16:00.374Z,4.20
2023-04-05T12:18:29.699Z,4.70
2023-04-05T12:20:57.871Z,5.60
2023-04-05T12:23:26.759Z,5.07
2023-04-05T12:25:56.113Z,4.38
2023-04-05T12:28:23.853Z,4.43
2023-04-05T12:30:54.490Z,4.22
2023-04-05T12:33:29.194Z,4.13
2023-04-05T12:35:57.020Z,3.75
2023-04-05T12:38:27.959Z,4.88
2023-04-05T12:40:55.899Z,4.30
2023-04-05T12:43:23.902Z,3.50
2023-04-05T12:45:56.326Z,3.95
2023-04-05T12:48:25.987Z,3.95
2023-04-05T12:50:54.903Z,3.95
2023-04-05T12:53:25.411Z,3.80
2023-04-05T12:55:54.681Z,3.55
2023-04-05T12:58:24.035Z,4.45
2023-04-05T13:00:53.045Z,5.40
2023-04-05T13:03:22.562Z,4.63
2023-04-05T13:05:50.363Z,4.90
2023-04-05T13:08:18.441Z,5.05
2023-04-05T13:10:49.240Z,4.85
2023-04-05T13:13:18.308Z,5.15
2023-04-05T13:15:46.761Z,6.07
2023-04-05T13:18:16.494Z,5.40
2023-04-05T13:20:44.634Z,5.93
2023-04-05T13:23:12.847Z,5.47
2023-04-05T13:25:41.382Z,5.97
2023-04-05T13:28:10.422Z,6.20
2023-04-05T13:30:38.404Z,6.00
2023-04-05T13:33:06.117Z,6.20
2023-04-05T13:35:35.735Z,6.30
2023-04-05T13:38:04.786Z,5.05
2023-04-05T13:40:32.777Z,6.07
2023-04-05T13:43:00.628Z,5.35
2023-04-05T13:45:28.668Z,5.75
2023-04-05T13:47:56.861Z,6.25
2023-04-05T13:50:24.617Z,6.47
2023-04-05T13:52:53.603Z,6.18
2023-04-05T13:55:21.373Z,7.03
2023-04-05T13:57:49.203Z,5.88
2023-04-05T14:00:17.232Z,5.40
2023-04-05T14:02:45.385Z,5.95
2023-04-05T14:05:13.094Z,6.05
2023-04-05T14:07:40.886Z,6.30
2023-04-05T14:10:11.575Z,4.80
2023-04-05T14:12:39.295Z,4.50
2023-04-05T14:15:08.021Z,4.60
2023-04-05T14:17:35.778Z,4.22
2023-04-05T14:20:03.503Z,4.57
2023-04-05T14:22:31.420Z,4.97
2023-04-05T14:24:59.000Z,4.60
2023-04-05T14:27:28.437Z,4.90
2023-04-05T14:29:57.357Z,5.38
2023-04-05T14:32:26.564Z,5.32
2023-04-05T14:34:54.333Z,6.22
2023-04-05T14:37:22.020Z,5.88
2023-04-05T14:39:49.652Z,6.80
2023-04-05T14:42:17.348Z,5.70
2023-04-05T14:44:46.605Z,6.70
2023-04-05T14:47:14.292Z,5.53
2023-04-05T14:49:42.109Z,5.20
2023-04-05T14:52:09.943Z,5.85
2023-04-05T14:54:38.542Z,5.90
2023-04-05T14:57:06.159Z,3.88
2023-04-05T14:59:34.009Z,6.47
2023-04-05T15:02:03.120Z,5.28
2023-04-05T15:04:31.114Z,5.72
2023-04-05T15:06:58.794Z,5.43
2023-04-05T15:09:26.545Z,5.93
2023-04-05T15:11:55.514Z,6.57
2023-04-05T15:14:31.714Z,5.25
2023-04-05T15:17:00.171Z,5.05
2023-04-05T15:19:30.499Z,5.28
2023-04-05T15:21:58.218Z,5.72
2023-04-05T15:24:26.043Z,6.30
2023-04-05T15:26:53.840Z,6.22
2023-04-05T15:29:21.446Z,9.07
2023-04-05T15:31:49.151Z,7.07
2023-04-05T15:34:17.769Z,5.85
2023-04-05T15:36:49.103Z,7.30
2023-04-05T15:39:16.893Z,7.35
2023-04-05T15:41:44.835Z,5.93
2023-04-05T15:44:12.598Z,5.60
2023-04-05T15:46:40.524Z,5.82
2023-04-05T15:49:11.576Z,6.40
2023-04-05T15:51:41.035Z,6.38
2023-04-05T15:54:10.256Z,4.88
2023-04-05T15:56:38.360Z,5.55
2023-04-05T15:59:07.221Z,6.00
2023-04-05T16:01:34.970Z,5.70
2023-04-05T16:04:03.002Z,6.28
2023-04-05T16:06:31.354Z,5.72
2023-04-05T16:09:01.504Z,6.53
2023-04-05T16:11:30.656Z,4.97
2023-04-05T16:13:58.291Z,5.88
2023-04-05T16:16:38.789Z,5.30
2023-04-05T16:19:15.708Z,6.38
2023-04-05T16:21:43.578Z,7.78
2023-04-05T16:24:11.594Z,7.18
2023-04-05T16:26:42.273Z,7.15
2023-04-05T16:29:09.898Z,6.70
2023-04-05T16:31:38.331Z,6.22
2023-04-05T16:34:06.301Z,5.93
2023-04-05T16:36:34.225Z,6.55
2023-04-05T16:39:02.420Z,5.38
2023-04-05T16:41:30.267Z,6.05
2023-04-05T16:43:59.864Z,6.78
2023-04-05T16:46:30.628Z,6.05
2023-04-05T16:48:58.663Z,5.40
2023-04-05T16:51:26.578Z,6.53
2023-04-05T16:53:54.571Z,7.65
2023-04-05T16:56:22.845Z,6.63
2023-04-05T16:58:51.242Z,6.18
2023-04-05T17:01:20.686Z,6.90
2023-04-05T17:03:48.572Z,7.43
2023-04-05T17:06:16.664Z,5.25
2023-04-05T17:08:44.423Z,6.38
2023-04-05T17:11:12.193Z,8.00
2023-04-05T17:13:41.757Z,6.50
2023-04-05T17:16:09.485Z,6.72
2023-04-05T17:18:39.714Z,6.07
2023-04-05T17:21:07.870Z,7.30
2023-04-05T17:23:35.718Z,6.65
2023-04-05T17:26:03.690Z,6.25
2023-04-05T17:28:32.469Z,5.93
2023-04-05T17:31:00.921Z,5.63
2023-04-05T17:33:28.818Z,6.07
2023-04-05T17:36:00.455Z,5.35
2023-04-05T17:38:28.236Z,6.35
2023-04-05T17:40:57.252Z,6.03
2023-04-05T17:43:25.115Z,6.07
2023-04-05T17:45:55.324Z,5.15
2023-04-05T17:48:23.574Z,4.55
2023-04-05T17:50:52.299Z,5.43
2023-04-05T17:53:21.703Z,5.75
2023-04-05T17:55:49.408Z,5.47
2023-04-05T17:58:17.346Z,5.55
2023-04-05T18:00:45.202Z,5.50
2023-04-05T18:03:13.680Z,5.63
2023-04-05T18:05:41.418Z,5.82
2023-04-05T18:08:09.127Z,5.35
2023-04-05T18:10:38.140Z,5.85
2023-04-05T18:13:06.246Z,5.93
2023-04-05T18:15:34.054Z,5.63
2023-04-05T18:18:03.876Z,5.75
2023-04-05T18:20:31.620Z,6.15
2023-04-05T18:23:00.296Z,5.65
2023-04-05T18:25:32.142Z,6.25
2023-04-05T18:28:12.160Z,5.68
2023-04-05T18:30:56.848Z,6.20
2023-04-05T18:33:29.369Z,6.40
2023-04-05T18:35:57.188Z,5.45
2023-04-05T18:38:24.951Z,6.35
2023-04-05T18:41:02.700Z,7.53
2023-04-05T18:43:32.068Z,6.82
2023-04-05T18:45:59.984Z,6.88
2023-04-05T18:48:27.635Z,9.00
2023-04-05T18:50:55.653Z,9.90
2023-04-05T18:53:24.058Z,6.22
2023-04-05T18:55:52.186Z,7.68
2023-04-05T18:58:21.769Z,7.97
2023-04-05T19:00:51.522Z,8.90
2023-04-05T19:03:19.430Z,8.73
2023-04-05T19:05:51.588Z,9.18
2023-04-05T19:08:19.967Z,9.88
2023-04-05T19:10:50.580Z,10.18
2023-04-05T19:13:18.591Z,8.85
2023-04-05T19:15:47.025Z,9.18
2023-04-05T19:18:16.026Z,10.20
2023-04-05T19:20:48.136Z,7.22
2023-04-05T19:23:16.109Z,8.23
2023-04-05T19:25:44.385Z,7.78
2023-04-05T19:28:12.387Z,7.53
2023-04-05T19:30:40.359Z,7.35
2023-04-05T19:33:11.060Z,7.60
2023-04-05T19:35:41.335Z,7.40
2023-04-05T19:38:09.282Z,9.05
2023-04-05T19:40:38.991Z,7.13
2023-04-05T19:43:08.662Z,7.38
2023-04-05T19:45:37.795Z,6.80
2023-04-05T19:48:25.482Z,8.50
2023-04-05T19:50:59.508Z,7.40
2023-04-05T19:53:41.751Z,7.57
2023-04-05T19:56:12.057Z,7.90
2023-04-05T19:58:40.505Z,6.57
2023-04-05T20:01:08.973Z,7.78
2023-04-05T20:03:38.203Z,8.35
2023-04-05T20:06:09.687Z,7.35
2023-04-05T20:08:39.356Z,7.38
2023-04-05T20:11:09.953Z,7.45
2023-04-05T20:13:42.750Z,7.82
2023-04-05T20:16:13.315Z,7.57
2023-04-05T20:18:51.106Z,7.47
2023-04-05T20:21:21.716Z,7.72
2023-04-05T20:23:52.443Z,8.02
2023-04-05T20:26:26.397Z,9.00
2023-04-05T20:28:58.320Z,8.18
2023-04-05T20:31:29.582Z,7.85
2023-04-05T20:33:59.115Z,7.88
2023-04-05T20:36:34.578Z,7.82
2023-04-05T20:39:03.919Z,7.38
2023-04-05T20:41:32.330Z,8.98
2023-04-05T20:44:00.783Z,8.05
2023-04-05T20:46:32.479Z,9.15
2023-04-05T20:49:16.224Z,7.50
2023-04-05T20:51:51.199Z,6.90
2023-04-05T20:54:21.085Z,8.93
2023-04-05T20:56:49.064Z,8.48
2023-04-05T20:59:17.204Z,8.88
2023-04-05T21:01:47.149Z,8.13
2023-04-05T21:04:15.277Z,8.15
2023-04-05T21:06:44.200Z,7.82
2023-04-05T21:09:13.176Z,8.23
2023-04-05T21:11:40.978Z,8.27
2023-04-05T21:14:09.352Z,8.63
2023-04-05T21:16:37.494Z,10.82
2023-04-05T21:19:05.602Z,7.30
2023-04-05T21:21:33.307Z,8.48
2023-04-05T21:24:01.022Z,8.57
2023-04-05T21:26:31.055Z,7.28
2023-04-05T21:28:58.664Z,8.65
2023-04-05T21:31:27.009Z,8.95
2023-04-05T21:33:54.751Z,8.20
2023-04-05T21:36:22.363Z,7.88
2023-04-05T21:38:49.982Z,8.82
2023-04-05T21:41:17.546Z,8.13
2023-04-05T21:43:46.506Z,10.23
2023-04-05T21:46:14.177Z,8.85
2023-04-05T21:48:41.764Z,8.40
2023-04-05T21:51:09.540Z,8.50
2023-04-05T21:53:37.127Z,8.57
2023-04-05T21:56:05.359Z,8.32
2023-04-05T21:58:33.033Z,7.38
2023-04-05T22:01:01.995Z,8.63
2023-04-05T22:03:29.694Z,8.60
2023-04-05T22:05:57.414Z,9.88
2023-04-05T22:08:26.666Z,8.50
2023-04-05T22:10:54.474Z,8.63
2023-04-05T22:13:22.078Z,8.95
2023-04-05T22:15:49.752Z,8.52
2023-04-05T22:18:18.653Z,9.85
2023-04-05T22:20:46.273Z,9.60
2023-04-05T22:23:13.913Z,9.15
2023-04-05T22:25:41.787Z,9.63
2023-04-05T22:28:09.567Z,8.97
2023-04-05T22:33:08.429Z,10.13
2023-04-05T22:35:37.482Z,10.07
2023-04-05T22:38:05.319Z,10.90
2023-04-05T22:40:32.996Z,11.20
2023-04-05T22:43:00.740Z,11.27
2023-04-05T22:45:28.704Z,15.20
2023-04-05T22:47:56.824Z,16.43
2023-04-05T22:50:24.589Z,19.58
2023-04-05T22:52:53.629Z,18.55
2023-04-05T22:55:21.458Z,15.37
2023-04-05T22:57:49.716Z,14.03
2023-04-05T23:00:17.818Z,16.70
2023-04-05T23:02:45.596Z,15.07
2023-04-05T23:05:13.612Z,13.67
2023-04-05T23:07:41.259Z,12.70
2023-04-05T23:10:11.459Z,14.13
2023-04-05T23:12:39.072Z,12.13
2023-04-05T23:15:07.811Z,13.07
2023-04-05T23:17:35.506Z,10.90
2023-04-05T23:20:05.813Z,13.43
2023-04-05T23:22:33.600Z,11.13
2023-04-05T23:25:02.298Z,11.30
2023-04-05T23:27:31.891Z,11.17
2023-04-05T23:29:59.488Z,11.77
2023-04-05T23:32:27.083Z,12.37
2023-04-05T23:34:54.741Z,11.43
2023-04-05T23:37:22.367Z,10.60
2023-04-05T23:39:49.937Z,9.73
2023-04-05T23:42:17.606Z,10.60
2023-04-05T23:44:46.554Z,9.43
2023-04-05T23:47:14.173Z,10.30
2023-04-05T23:49:41.892Z,10.27
2023-04-05T23:52:09.558Z,9.97
2023-04-05T23:54:37.202Z,10.33
2023-04-05T23:57:05.033Z,10.30
2023-04-05T23:59:32.648Z,10.10
